BAW370 LOWW-LHBP
Flight info
| Callsign | BAW370 |
|---|---|
| Flight time | 0h 32m |
| Altitude | 23000 |
| Route | ADAMA2C ADAMA Z647 ANEXA ANEXA2H |
| Aircraft | B788/H-SADE1E2E3FGHIJ3J4J5J6LM1M2OP2RWXYZ/LB1D1 |
Departure
| Time | 2026-04-23 05:50 |
|---|---|
| Airport | Vienna International Airport (LOWW) |
Arrival
| Time | 2026-04-23 06:22 |
|---|---|
| Airport | Budapest Liszt Ferenc International Airport (LHBP) |
| Time | Latitude | Longitude | Altitude | Speed | Heading |
|---|---|---|---|---|---|
| 2026-04-23 05:15 | 48.11766 | 16.56193 | 603 ft | 0 kts | 338° |
| 2026-04-23 05:39 | 48.11756 | 16.56199 | 604 ft | 3 kts | 338° |
| 2026-04-23 05:39 | 48.11739 | 16.56209 | 621 ft | 3 kts | 338° |
| 2026-04-23 05:40 | 48.11721 | 16.56219 | 621 ft | 3 kts | 338° |
| 2026-04-23 05:40 | 48.11705 | 16.56229 | 621 ft | 0 kts | 338° |
| 2026-04-23 05:45 | 48.11709 | 16.56227 | 621 ft | 2 kts | 338° |
| 2026-04-23 05:45 | 48.11717 | 16.56220 | 621 ft | 1 kts | 315° |
| 2026-04-23 05:45 | 48.11726 | 16.56203 | 621 ft | 4 kts | 306° |
| 2026-04-23 05:45 | 48.11731 | 16.56155 | 619 ft | 5 kts | 246° |
| 2026-04-23 05:46 | 48.11711 | 16.56132 | 614 ft | 1 kts | 186° |
| 2026-04-23 05:46 | 48.11692 | 16.56137 | 614 ft | 5 kts | 163° |
| 2026-04-23 05:46 | 48.11638 | 16.56162 | 614 ft | 11 kts | 163° |
| 2026-04-23 05:46 | 48.11563 | 16.56215 | 620 ft | 13 kts | 136° |
| 2026-04-23 05:47 | 48.11513 | 16.56341 | 614 ft | 16 kts | 116° |
| 2026-04-23 05:47 | 48.11457 | 16.56515 | 616 ft | 20 kts | 116° |
| 2026-04-23 05:47 | 48.11394 | 16.56707 | 617 ft | 22 kts | 116° |
| 2026-04-23 05:47 | 48.11327 | 16.56908 | 624 ft | 21 kts | 116° |
| 2026-04-23 05:48 | 48.11261 | 16.57106 | 623 ft | 22 kts | 116° |
| 2026-04-23 05:48 | 48.11193 | 16.57322 | 622 ft | 24 kts | 114° |
| 2026-04-23 05:48 | 48.11117 | 16.57558 | 614 ft | 25 kts | 117° |
| 2026-04-23 05:48 | 48.10987 | 16.57593 | 621 ft | 21 kts | 217° |
| 2026-04-23 05:49 | 48.10971 | 16.57392 | 618 ft | 25 kts | 296° |
| 2026-04-23 05:49 | 48.11081 | 16.57056 | 625 ft | 57 kts | 295° |
| 2026-04-23 05:49 | 48.11345 | 16.56239 | 619 ft | 118 kts | 296° |
| 2026-04-23 05:49 | 48.11769 | 16.54921 | 857 ft | 152 kts | 290° |
| 2026-04-23 05:50 | 48.12060 | 16.53972 | 1579 ft | 150 kts | 294° |
| 2026-04-23 05:50 | 48.11988 | 16.52348 | 2458 ft | 175 kts | 260° |
| 2026-04-23 05:50 | 48.11132 | 16.50748 | 2991 ft | 227 kts | 225° |
| 2026-04-23 05:50 | 48.09709 | 16.49307 | 3714 ft | 261 kts | 218° |
| 2026-04-23 05:51 | 48.08083 | 16.47896 | 4779 ft | 277 kts | 205° |
| 2026-04-23 05:51 | 48.06169 | 16.47497 | 6120 ft | 287 kts | 178° |
| 2026-04-23 05:51 | 48.04157 | 16.47838 | 7259 ft | 294 kts | 174° |
| 2026-04-23 05:51 | 48.02114 | 16.48254 | 8389 ft | 301 kts | 172° |
| 2026-04-23 05:52 | 48.00009 | 16.48668 | 9506 ft | 309 kts | 172° |
| 2026-04-23 05:52 | 47.97921 | 16.49446 | 10523 ft | 313 kts | 150° |
| 2026-04-23 05:52 | 47.96226 | 16.51558 | 11045 ft | 328 kts | 121° |
| 2026-04-23 05:52 | 47.95240 | 16.54692 | 11512 ft | 341 kts | 96° |
| 2026-04-23 05:53 | 47.95235 | 16.58175 | 12468 ft | 334 kts | 72° |
| 2026-04-23 05:53 | 47.95907 | 16.61475 | 13565 ft | 335 kts | 66° |
| 2026-04-23 05:53 | 47.96710 | 16.64768 | 14616 ft | 338 kts | 65° |
| 2026-04-23 05:53 | 47.97512 | 16.68096 | 15552 ft | 344 kts | 66° |
| 2026-04-23 05:54 | 47.98283 | 16.71505 | 16506 ft | 349 kts | 67° |
| 2026-04-23 05:54 | 47.99059 | 16.74959 | 17446 ft | 354 kts | 67° |
| 2026-04-23 05:54 | 47.99680 | 16.78527 | 18312 ft | 364 kts | 78° |
| 2026-04-23 05:54 | 47.99923 | 16.82350 | 19111 ft | 370 kts | 80° |
| 2026-04-23 05:55 | 48.00142 | 16.86160 | 20020 ft | 369 kts | 80° |
| 2026-04-23 05:55 | 48.00350 | 16.89948 | 21121 ft | 364 kts | 81° |
| 2026-04-23 05:55 | 48.00563 | 16.93731 | 22156 ft | 360 kts | 81° |
| 2026-04-23 05:55 | 48.00777 | 16.97451 | 23046 ft | 361 kts | 81° |
| 2026-04-23 05:56 | 48.00994 | 17.01238 | 23211 ft | 375 kts | 81° |
| 2026-04-23 05:56 | 48.01013 | 17.05105 | 23218 ft | 375 kts | 91° |
| 2026-04-23 05:56 | 48.00717 | 17.08989 | 23206 ft | 373 kts | 91° |
| 2026-04-23 05:56 | 48.00424 | 17.12834 | 23201 ft | 373 kts | 91° |
| 2026-04-23 05:57 | 48.00132 | 17.16674 | 23200 ft | 373 kts | 91° |
| 2026-04-23 05:57 | 47.99837 | 17.20524 | 23203 ft | 373 kts | 91° |
| 2026-04-23 05:57 | 47.99541 | 17.24344 | 23199 ft | 373 kts | 91° |
| 2026-04-23 05:57 | 47.99239 | 17.28227 | 23197 ft | 373 kts | 91° |
| 2026-04-23 05:58 | 47.98942 | 17.32045 | 23198 ft | 373 kts | 91° |
| 2026-04-23 05:58 | 47.98585 | 17.35863 | 23204 ft | 375 kts | 95° |
| 2026-04-23 05:58 | 47.98145 | 17.39732 | 23201 ft | 374 kts | 94° |
| 2026-04-23 05:58 | 47.97728 | 17.43556 | 23199 ft | 374 kts | 94° |
| 2026-04-23 05:59 | 47.97304 | 17.47388 | 23199 ft | 374 kts | 94° |
| 2026-04-23 05:59 | 47.96871 | 17.51209 | 23197 ft | 374 kts | 94° |
| 2026-04-23 05:59 | 47.96439 | 17.55019 | 23194 ft | 374 kts | 94° |
| 2026-04-23 05:59 | 47.96005 | 17.58871 | 23194 ft | 373 kts | 94° |
| 2026-04-23 06:00 | 47.95578 | 17.62646 | 23187 ft | 374 kts | 94° |
| 2026-04-23 06:00 | 47.95142 | 17.66471 | 23189 ft | 374 kts | 94° |
| 2026-04-23 06:00 | 47.94707 | 17.70284 | 23189 ft | 374 kts | 94° |
| 2026-04-23 06:00 | 47.94265 | 17.74142 | 23194 ft | 374 kts | 94° |
| 2026-04-23 06:01 | 47.93829 | 17.77939 | 23192 ft | 374 kts | 94° |
| 2026-04-23 06:01 | 47.93387 | 17.81783 | 23193 ft | 374 kts | 94° |
| 2026-04-23 06:01 | 47.92947 | 17.85589 | 23191 ft | 374 kts | 94° |
| 2026-04-23 06:01 | 47.92506 | 17.89397 | 23193 ft | 374 kts | 94° |
| 2026-04-23 06:02 | 47.92059 | 17.93236 | 23191 ft | 373 kts | 94° |
| 2026-04-23 06:02 | 47.91619 | 17.97016 | 23195 ft | 373 kts | 95° |
| 2026-04-23 06:02 | 47.91171 | 18.00848 | 23193 ft | 373 kts | 95° |
| 2026-04-23 06:02 | 47.90721 | 18.04684 | 23187 ft | 373 kts | 95° |
| 2026-04-23 06:03 | 47.90273 | 18.08485 | 23186 ft | 373 kts | 95° |
| 2026-04-23 06:03 | 47.89829 | 18.12251 | 23189 ft | 372 kts | 95° |
| 2026-04-23 06:03 | 47.89378 | 18.16065 | 23185 ft | 372 kts | 95° |
| 2026-04-23 06:03 | 47.88924 | 18.19887 | 23185 ft | 372 kts | 95° |
| 2026-04-23 06:04 | 47.88476 | 18.23653 | 23191 ft | 372 kts | 95° |
| 2026-04-23 06:04 | 47.88024 | 18.27441 | 23179 ft | 372 kts | 95° |
| 2026-04-23 06:04 | 47.87564 | 18.31280 | 23181 ft | 372 kts | 95° |
| 2026-04-23 06:04 | 47.87110 | 18.35063 | 23183 ft | 373 kts | 95° |
| 2026-04-23 06:05 | 47.86655 | 18.38843 | 23180 ft | 373 kts | 95° |
| 2026-04-23 06:05 | 47.86128 | 18.42655 | 23185 ft | 377 kts | 102° |
| 2026-04-23 06:05 | 47.85111 | 18.46288 | 23183 ft | 383 kts | 114° |
| 2026-04-23 06:05 | 47.83576 | 18.49561 | 23182 ft | 389 kts | 126° |
| 2026-04-23 06:06 | 47.81567 | 18.52302 | 23183 ft | 395 kts | 139° |
| 2026-04-23 06:06 | 47.79277 | 18.54548 | 23096 ft | 392 kts | 141° |
| 2026-04-23 06:06 | 47.76963 | 18.56763 | 22337 ft | 396 kts | 142° |
| 2026-04-23 06:06 | 47.74646 | 18.58969 | 21597 ft | 400 kts | 142° |
| 2026-04-23 06:07 | 47.72307 | 18.61195 | 20913 ft | 402 kts | 142° |
| 2026-04-23 06:07 | 47.69943 | 18.63462 | 20203 ft | 403 kts | 140° |
| 2026-04-23 06:07 | 47.67863 | 18.66166 | 19512 ft | 397 kts | 127° |
| 2026-04-23 06:07 | 47.65991 | 18.69229 | 18807 ft | 398 kts | 127° |
| 2026-04-23 06:08 | 47.64158 | 18.72270 | 18066 ft | 400 kts | 127° |
| 2026-04-23 06:08 | 47.62302 | 18.75334 | 17365 ft | 399 kts | 127° |
| 2026-04-23 06:08 | 47.60427 | 18.78404 | 16664 ft | 397 kts | 127° |
| 2026-04-23 06:08 | 47.58583 | 18.81423 | 15970 ft | 396 kts | 127° |
| 2026-04-23 06:09 | 47.56746 | 18.84435 | 15286 ft | 394 kts | 127° |
| 2026-04-23 06:09 | 47.54914 | 18.87437 | 14603 ft | 392 kts | 127° |
| 2026-04-23 06:09 | 47.53075 | 18.90444 | 13922 ft | 391 kts | 127° |
| 2026-04-23 06:09 | 47.51263 | 18.93403 | 13216 ft | 388 kts | 127° |
| 2026-04-23 06:10 | 47.49459 | 18.96346 | 12543 ft | 385 kts | 128° |
| 2026-04-23 06:10 | 47.47674 | 18.99257 | 11887 ft | 381 kts | 128° |
| 2026-04-23 06:10 | 47.45895 | 19.02154 | 11204 ft | 378 kts | 128° |
| 2026-04-23 06:10 | 47.44131 | 19.05023 | 10733 ft | 371 kts | 129° |
| 2026-04-23 06:11 | 47.42440 | 19.07762 | 10605 ft | 353 kts | 129° |
| 2026-04-23 06:11 | 47.40831 | 19.10371 | 10455 ft | 337 kts | 128° |
| 2026-04-23 06:11 | 47.39266 | 19.12915 | 10073 ft | 331 kts | 128° |
| 2026-04-23 06:11 | 47.37750 | 19.15370 | 9644 ft | 307 kts | 129° |
| 2026-04-23 06:12 | 47.36381 | 19.17575 | 9287 ft | 281 kts | 128° |
| 2026-04-23 06:12 | 47.35044 | 19.19750 | 8935 ft | 290 kts | 128° |
| 2026-04-23 06:12 | 47.32321 | 19.24151 | 8075 ft | 287 kts | 129° |
| 2026-04-23 06:13 | 47.30982 | 19.26304 | 7785 ft | 281 kts | 129° |
| 2026-04-23 06:13 | 47.29686 | 19.28393 | 7465 ft | 276 kts | 129° |
| 2026-04-23 06:13 | 47.28409 | 19.30455 | 7156 ft | 271 kts | 130° |
| 2026-04-23 06:13 | 47.27152 | 19.32473 | 6844 ft | 256 kts | 130° |
| 2026-04-23 06:14 | 47.25995 | 19.34329 | 6533 ft | 239 kts | 130° |
| 2026-04-23 06:14 | 47.24904 | 19.36082 | 6249 ft | 223 kts | 129° |
| 2026-04-23 06:14 | 47.23902 | 19.37722 | 6012 ft | 214 kts | 127° |
| 2026-04-23 06:14 | 47.23336 | 19.39678 | 5812 ft | 204 kts | 92° |
| 2026-04-23 06:15 | 47.23559 | 19.41631 | 5679 ft | 192 kts | 61° |
| 2026-04-23 06:15 | 47.24379 | 19.43118 | 5464 ft | 186 kts | 39° |
| 2026-04-23 06:15 | 47.25351 | 19.44413 | 5221 ft | 190 kts | 38° |
| 2026-04-23 06:15 | 47.26321 | 19.45717 | 4977 ft | 190 kts | 39° |
| 2026-04-23 06:16 | 47.27321 | 19.46891 | 4714 ft | 174 kts | 25° |
| 2026-04-23 06:16 | 47.28434 | 19.47217 | 4480 ft | 159 kts | 358° |
| 2026-04-23 06:16 | 47.29386 | 19.46575 | 4287 ft | 148 kts | 325° |
| 2026-04-23 06:16 | 47.30204 | 19.45700 | 4078 ft | 144 kts | 318° |
| 2026-04-23 06:17 | 47.30853 | 19.44659 | 3994 ft | 133 kts | 317° |
| 2026-04-23 06:17 | 47.31524 | 19.43611 | 3879 ft | 145 kts | 315° |
| 2026-04-23 06:17 | 47.32203 | 19.42518 | 3679 ft | 145 kts | 315° |
| 2026-04-23 06:17 | 47.32880 | 19.41416 | 3485 ft | 146 kts | 314° |
| 2026-04-23 06:18 | 47.33568 | 19.40311 | 3286 ft | 146 kts | 315° |
| 2026-04-23 06:18 | 47.34245 | 19.39221 | 3088 ft | 145 kts | 316° |
| 2026-04-23 06:18 | 47.34915 | 19.38142 | 2906 ft | 141 kts | 315° |
| 2026-04-23 06:18 | 47.35596 | 19.37052 | 2704 ft | 144 kts | 316° |
| 2026-04-23 06:19 | 47.36254 | 19.35979 | 2515 ft | 142 kts | 316° |
| 2026-04-23 06:19 | 47.36923 | 19.34906 | 2295 ft | 139 kts | 316° |
| 2026-04-23 06:19 | 47.37569 | 19.33861 | 2121 ft | 138 kts | 316° |
| 2026-04-23 06:19 | 47.38218 | 19.32810 | 1925 ft | 139 kts | 316° |
| 2026-04-23 06:20 | 47.38879 | 19.31762 | 1746 ft | 138 kts | 316° |
| 2026-04-23 06:20 | 47.39522 | 19.30726 | 1548 ft | 138 kts | 315° |
| 2026-04-23 06:20 | 47.40178 | 19.29667 | 1350 ft | 138 kts | 315° |
| 2026-04-23 06:20 | 47.40825 | 19.28612 | 1155 ft | 141 kts | 314° |
| 2026-04-23 06:21 | 47.41493 | 19.27535 | 953 ft | 142 kts | 313° |
| 2026-04-23 06:21 | 47.42156 | 19.26467 | 784 ft | 140 kts | 310° |
| 2026-04-23 06:21 | 47.42801 | 19.25399 | 659 ft | 139 kts | 311° |
| 2026-04-23 06:21 | 47.43453 | 19.24370 | 469 ft | 130 kts | 314° |
| 2026-04-23 06:22 | 47.43954 | 19.23560 | 460 ft | 85 kts | 312° |
| 2026-04-23 06:22 | 47.44316 | 19.22971 | 465 ft | 71 kts | 312° |
| 2026-04-23 06:22 | 47.44525 | 19.22609 | 464 ft | 31 kts | 286° |
| 2026-04-23 06:22 | 47.44473 | 19.22373 | 462 ft | 23 kts | 209° |
| 2026-04-23 06:23 | 47.44344 | 19.22415 | 464 ft | 20 kts | 153° |
| 2026-04-23 06:23 | 47.44214 | 19.22513 | 463 ft | 22 kts | 154° |
| 2026-04-23 06:23 | 47.44061 | 19.22625 | 460 ft | 27 kts | 153° |
| 2026-04-23 06:23 | 47.43873 | 19.22718 | 453 ft | 31 kts | 159° |
| 2026-04-23 06:24 | 47.43715 | 19.22927 | 451 ft | 31 kts | 103° |
| 2026-04-23 06:24 | 47.43735 | 19.23237 | 459 ft | 29 kts | 82° |
| 2026-04-23 06:24 | 47.43760 | 19.23522 | 465 ft | 27 kts | 81° |
| 2026-04-23 06:24 | 47.43818 | 19.23782 | 462 ft | 27 kts | 45° |
| 2026-04-23 06:25 | 47.43907 | 19.24001 | 464 ft | 25 kts | 105° |
| 2026-04-23 06:25 | 47.43796 | 19.24215 | 460 ft | 28 kts | 133° |
| 2026-04-23 06:25 | 47.43657 | 19.24438 | 459 ft | 31 kts | 131° |
| 2026-04-23 06:25 | 47.43508 | 19.24680 | 460 ft | 32 kts | 132° |
| 2026-04-23 06:26 | 47.43358 | 19.24922 | 464 ft | 32 kts | 132° |
| 2026-04-23 06:26 | 47.43234 | 19.25178 | 466 ft | 30 kts | 94° |
| 2026-04-23 06:26 | 47.43335 | 19.25389 | 471 ft | 24 kts | 38° |
| 2026-04-23 06:26 | 47.43465 | 19.25545 | 480 ft | 23 kts | 40° |
| 2026-04-23 06:27 | 47.43539 | 19.25733 | 488 ft | 23 kts | 87° |
| 2026-04-23 06:27 | 47.43512 | 19.25968 | 483 ft | 23 kts | 127° |
| 2026-04-23 06:27 | 47.43428 | 19.26100 | 483 ft | 4 kts | 141° |
| 2026-04-23 06:27 | 47.43428 | 19.26101 | 483 ft | 0 kts | 141° |